createdAt,value
2022-11-26T00:00:49.080Z,36.23
2022-11-26T00:03:16.965Z,37.77
2022-11-26T00:05:45.889Z,32.73
2022-11-26T00:08:17.787Z,41.20
2022-11-26T00:10:53.777Z,35.53
2022-11-26T00:13:22.918Z,41.33
2022-11-26T00:15:50.987Z,44.20
2022-11-26T00:18:18.554Z,45.23
2022-11-26T00:20:47.232Z,41.10
2022-11-26T00:23:21.146Z,45.77
2022-11-26T00:25:52.011Z,44.27
2022-11-26T00:28:28.718Z,45.47
2022-11-26T00:30:57.762Z,37.47
2022-11-26T00:33:27.015Z,43.60
2022-11-26T00:35:57.085Z,35.90
2022-11-26T00:38:24.812Z,35.93
2022-11-26T00:40:53.793Z,37.57
2022-11-26T00:43:21.196Z,39.13
2022-11-26T00:45:50.326Z,46.10
2022-11-26T00:48:19.344Z,38.30
2022-11-26T00:50:49.091Z,30.67
2022-11-26T00:53:19.185Z,36.90
2022-11-26T00:55:48.686Z,40.43
2022-11-26T00:58:23.864Z,39.60
2022-11-26T01:00:51.883Z,46.50
2022-11-26T01:03:19.688Z,34.93
2022-11-26T01:05:50.177Z,36.50
2022-11-26T01:08:28.778Z,33.30
2022-11-26T01:10:56.298Z,33.43
2022-11-26T01:13:25.073Z,31.40
2022-11-26T01:15:52.633Z,39.47
2022-11-26T01:18:21.180Z,32.60
2022-11-26T01:20:49.051Z,31.73
2022-11-26T01:23:18.758Z,28.07
2022-11-26T01:25:47.359Z,32.13
2022-11-26T01:28:18.012Z,46.63
2022-11-26T01:30:47.461Z,31.40
2022-11-26T01:33:14.935Z,36.07
2022-11-26T01:35:42.336Z,31.93
2022-11-26T01:38:12.106Z,34.50
2022-11-26T01:41:04.284Z,41.03
2022-11-26T01:43:34.503Z,36.93
2022-11-26T01:46:03.346Z,37.60
2022-11-26T01:48:33.444Z,35.63
2022-11-26T01:51:03.507Z,44.27
2022-11-26T01:53:34.899Z,36.23
2022-11-26T01:56:05.253Z,32.07
2022-11-26T01:58:39.620Z,38.17
2022-11-26T02:01:09.079Z,39.13
2022-11-26T02:03:45.194Z,46.20
2022-11-26T02:06:16.639Z,37.57
2022-11-26T02:08:44.406Z,38.40
2022-11-26T02:11:19.564Z,44.47
2022-11-26T02:13:48.731Z,38.97
2022-11-26T02:16:25.455Z,39.43
2022-11-26T02:19:03.255Z,39.63
2022-11-26T02:21:32.981Z,43.07
2022-11-26T02:24:32.643Z,38.80
2022-11-26T02:27:16.305Z,37.03
2022-11-26T02:30:04.700Z,41.50
2022-11-26T02:32:35.539Z,41.13
2022-11-26T02:35:06.283Z,42.00
2022-11-26T02:37:37.084Z,38.90
2022-11-26T02:40:05.327Z,46.30
2022-11-26T02:42:35.169Z,38.83
2022-11-26T02:45:07.751Z,45.30
2022-11-26T02:47:38.783Z,45.47
2022-11-26T02:50:09.786Z,37.83
2022-11-26T02:52:40.349Z,42.00
2022-11-26T02:55:09.473Z,41.37
2022-11-26T02:57:42.547Z,38.47
2022-11-26T03:00:12.675Z,40.30
2022-11-26T03:02:44.630Z,42.43
2022-11-26T03:05:13.620Z,39.67
2022-11-26T03:07:41.455Z,49.87
2022-11-26T03:10:09.486Z,38.97
2022-11-26T03:12:36.908Z,41.07
2022-11-26T03:15:04.863Z,46.10
2022-11-26T03:17:35.695Z,44.10
2022-11-26T03:20:04.687Z,43.50
2022-11-26T03:22:32.190Z,46.73
2022-11-26T03:24:59.610Z,48.40
2022-11-26T03:27:27.127Z,41.00
2022-11-26T03:29:54.630Z,42.53
2022-11-26T03:32:22.073Z,44.27
2022-11-26T03:34:51.087Z,49.17
2022-11-26T03:37:18.588Z,43.57
2022-11-26T03:39:45.976Z,53.47
2022-11-26T03:42:13.457Z,46.80
2022-11-26T03:44:41.066Z,44.63
2022-11-26T03:47:08.515Z,47.87
2022-11-26T03:49:35.939Z,50.67
2022-11-26T03:52:04.896Z,47.17
2022-11-26T03:54:32.341Z,52.83
2022-11-26T03:56:59.779Z,54.30
2022-11-26T03:59:27.280Z,51.03
2022-11-26T04:01:55.453Z,46.53
2022-11-26T04:04:22.959Z,49.57
2022-11-26T04:06:50.387Z,49.13
2022-11-26T04:09:19.215Z,46.57
2022-11-26T04:11:47.827Z,54.33
2022-11-26T04:14:15.349Z,54.90
2022-11-26T04:16:42.833Z,45.27
2022-11-26T04:19:10.298Z,56.13
2022-11-26T04:21:37.771Z,54.07
2022-11-26T04:24:05.670Z,59.57
2022-11-26T04:26:34.497Z,56.00
2022-11-26T04:29:01.906Z,56.37
2022-11-26T04:31:29.360Z,60.80
2022-11-26T04:33:56.884Z,61.73
2022-11-26T04:36:24.503Z,55.47
2022-11-26T04:38:51.951Z,59.80
2022-11-26T04:41:19.489Z,62.43
2022-11-26T04:43:48.291Z,52.10
2022-11-26T04:46:15.778Z,71.40
2022-11-26T04:48:43.312Z,60.67
2022-11-26T04:51:10.711Z,67.50
2022-11-26T04:53:38.126Z,61.33
2022-11-26T04:56:05.755Z,68.47
2022-11-26T04:58:33.159Z,64.07
2022-11-26T05:01:02.003Z,67.27
2022-11-26T05:03:29.804Z,61.57
2022-11-26T05:05:57.252Z,71.47
2022-11-26T05:08:24.722Z,65.93
2022-11-26T05:10:54.082Z,66.97
2022-11-26T05:13:21.643Z,60.30
2022-11-26T05:15:49.117Z,62.97
2022-11-26T05:18:18.130Z,70.60
2022-11-26T05:20:45.573Z,67.70
2022-11-26T05:23:13.147Z,64.30
2022-11-26T05:25:40.604Z,71.20
2022-11-26T05:28:08.036Z,75.03
2022-11-26T05:30:35.631Z,62.93
2022-11-26T05:33:03.037Z,69.67
2022-11-26T05:35:31.823Z,75.67
2022-11-26T05:37:59.273Z,76.10
2022-11-26T05:40:26.976Z,69.37
2022-11-26T05:42:54.506Z,68.70
2022-11-26T05:45:22.013Z,78.20
2022-11-26T05:47:49.408Z,79.80
2022-11-26T05:50:17.755Z,71.97
2022-11-26T05:52:46.471Z,69.80
2022-11-26T05:55:16.349Z,63.57
2022-11-26T05:57:43.816Z,72.07
2022-11-26T06:00:12.796Z,69.70
2022-11-26T06:02:41.278Z,66.00
2022-11-26T06:05:09.531Z,63.80
2022-11-26T06:07:40.581Z,65.93
2022-11-26T06:10:13.034Z,60.07
2022-11-26T06:12:40.556Z,68.40
2022-11-26T06:15:08.745Z,72.00
2022-11-26T06:17:38.276Z,66.43
2022-11-26T06:20:07.022Z,71.73
2022-11-26T06:22:37.894Z,84.03
2022-11-26T06:25:06.066Z,67.10
2022-11-26T06:27:35.533Z,76.17
2022-11-26T06:30:04.561Z,65.10
2022-11-26T06:32:32.590Z,73.43
2022-11-26T06:35:00.042Z,72.20
2022-11-26T06:37:27.826Z,74.53
2022-11-26T06:39:55.347Z,79.80
2022-11-26T06:42:22.771Z,81.70
2022-11-26T06:44:53.221Z,79.17
2022-11-26T06:47:23.302Z,81.13
2022-11-26T06:49:50.699Z,84.17
2022-11-26T06:52:18.208Z,81.77
2022-11-26T06:54:45.624Z,81.23
2022-11-26T06:57:15.011Z,77.47
2022-11-26T06:59:42.460Z,75.17
2022-11-26T07:02:12.181Z,83.87
2022-11-26T07:04:39.761Z,83.97
2022-11-26T07:07:07.396Z,80.20
2022-11-26T07:09:34.812Z,73.20
2022-11-26T07:12:02.216Z,70.83
2022-11-26T07:14:29.637Z,75.13
2022-11-26T07:16:57.103Z,69.93
2022-11-26T07:19:26.074Z,69.70
2022-11-26T07:21:54.083Z,77.13
2022-11-26T07:24:21.479Z,66.83
2022-11-26T07:26:49.911Z,74.03
2022-11-26T07:29:17.462Z,68.20
2022-11-26T07:31:44.967Z,65.47
2022-11-26T07:34:12.429Z,75.23
2022-11-26T07:36:43.336Z,70.37
2022-11-26T07:39:11.913Z,68.77
2022-11-26T07:41:39.558Z,69.00
2022-11-26T07:44:06.999Z,83.37
2022-11-26T07:46:37.434Z,72.23
2022-11-26T07:49:04.960Z,85.23
2022-11-26T07:51:33.563Z,74.87
2022-11-26T07:54:07.510Z,76.47
2022-11-26T07:56:35.375Z,80.50
2022-11-26T07:59:02.857Z,72.50
2022-11-26T08:01:31.996Z,84.77
2022-11-26T08:04:00.631Z,80.37
2022-11-26T08:06:30.045Z,82.63
2022-11-26T08:08:59.945Z,77.90
2022-11-26T08:11:30.372Z,87.73
2022-11-26T08:13:59.624Z,90.63
2022-11-26T08:16:29.017Z,74.87
2022-11-26T08:18:57.326Z,76.70
2022-11-26T08:21:24.907Z,84.87
2022-11-26T08:23:52.852Z,79.93
2022-11-26T08:26:25.254Z,74.83
2022-11-26T08:29:00.493Z,76.57
2022-11-26T08:31:28.621Z,84.53
2022-11-26T08:33:57.815Z,74.50
2022-11-26T08:36:25.327Z,70.13
2022-11-26T08:38:52.746Z,72.87
2022-11-26T08:41:20.394Z,68.27
2022-11-26T08:46:37.322Z,63.87
2022-11-26T08:49:05.072Z,57.07
2022-11-26T08:51:32.553Z,76.80
2022-11-26T08:54:00.051Z,61.33
2022-11-26T08:56:27.482Z,57.53
2022-11-26T08:58:54.907Z,56.77
2022-11-26T09:01:24.409Z,53.60
2022-11-26T09:03:54.664Z,45.00
2022-11-26T09:06:23.389Z,49.93
2022-11-26T09:09:08.723Z,47.60
2022-11-26T09:11:38.583Z,42.23
2022-11-26T09:14:06.256Z,36.03
2022-11-26T09:16:33.924Z,41.33
2022-11-26T09:19:04.194Z,41.17
2022-11-26T09:21:34.500Z,33.13
2022-11-26T09:24:02.047Z,41.90
2022-11-26T09:26:31.171Z,36.77
2022-11-26T09:28:58.799Z,37.60
2022-11-26T09:31:26.673Z,37.30
2022-11-26T09:33:56.046Z,28.07
2022-11-26T09:36:24.841Z,35.30
2022-11-26T09:38:54.760Z,33.20
2022-11-26T09:41:31.775Z,37.00
2022-11-26T09:44:16.362Z,26.53
2022-11-26T09:47:10.878Z,34.07
2022-11-26T09:49:40.571Z,26.67
2022-11-26T09:52:10.376Z,29.27
2022-11-26T09:54:39.141Z,32.87
2022-11-26T09:58:26.671Z,27.90
2022-11-26T10:00:56.497Z,30.57
2022-11-26T10:03:25.883Z,29.63
2022-11-26T10:05:58.931Z,30.63
2022-11-26T10:08:38.626Z,28.50
2022-11-26T10:11:09.675Z,28.67
2022-11-26T10:13:44.419Z,32.27
2022-11-26T10:16:16.143Z,38.00
2022-11-26T10:18:48.819Z,27.53
2022-11-26T10:21:32.413Z,28.93
2022-11-26T10:24:11.259Z,29.00
2022-11-26T10:26:40.608Z,26.73
2022-11-26T10:29:19.391Z,26.33
2022-11-26T10:31:48.231Z,29.63
2022-11-26T10:34:19.784Z,26.57
2022-11-26T10:36:48.362Z,35.87
2022-11-26T10:39:17.524Z,27.10
2022-11-26T10:41:45.606Z,28.50
2022-11-26T10:44:34.150Z,30.80
2022-11-26T10:47:21.333Z,32.00
2022-11-26T10:49:49.272Z,26.37
2022-11-26T10:52:18.592Z,33.50
2022-11-26T10:54:47.128Z,30.67
2022-11-26T10:57:16.871Z,26.43
2022-11-26T10:59:51.159Z,26.30
2022-11-26T11:02:31.010Z,27.10
2022-11-26T11:04:59.807Z,36.00
2022-11-26T11:07:41.605Z,35.23
2022-11-26T11:10:15.859Z,33.23
2022-11-26T11:12:44.279Z,32.80
2022-11-26T11:15:22.613Z,30.60
2022-11-26T11:17:56.795Z,30.33
2022-11-26T11:20:29.740Z,30.30
2022-11-26T11:23:03.501Z,32.57
2022-11-26T11:25:32.484Z,33.33
2022-11-26T11:28:12.049Z,30.90
2022-11-26T11:30:42.378Z,30.17
2022-11-26T11:33:12.441Z,28.23
2022-11-26T11:35:39.967Z,33.60
2022-11-26T11:38:22.563Z,29.33
2022-11-26T11:40:51.832Z,29.47
2022-11-26T11:43:22.484Z,33.87
2022-11-26T11:46:09.937Z,33.77
2022-11-26T11:48:47.081Z,30.67
2022-11-26T11:51:24.718Z,37.97
2022-11-26T11:54:03.496Z,34.17
2022-11-26T11:56:35.954Z,31.33
2022-11-26T11:59:21.882Z,31.40
2022-11-26T12:02:09.750Z,27.50
2022-11-26T12:04:52.236Z,28.10
2022-11-26T12:07:31.549Z,35.53
2022-11-26T12:10:06.770Z,33.67
2022-11-26T12:12:36.446Z,31.50
2022-11-26T12:15:07.704Z,31.20
2022-11-26T12:17:39.815Z,27.20
2022-11-26T12:20:15.526Z,29.00
2022-11-26T12:22:46.418Z,29.67
2022-11-26T12:25:21.733Z,25.20
2022-11-26T12:27:56.046Z,29.57
2022-11-26T12:30:27.392Z,29.20
2022-11-26T12:32:58.728Z,27.77
2022-11-26T12:35:30.019Z,28.07
2022-11-26T12:37:59.595Z,28.90
2022-11-26T12:40:32.611Z,26.33
2022-11-26T12:43:03.499Z,31.13
2022-11-26T12:45:45.833Z,26.63
2022-11-26T12:48:25.911Z,33.77
2022-11-26T12:50:56.012Z,25.00
2022-11-26T12:53:32.896Z,25.67
2022-11-26T12:56:07.335Z,28.23
2022-11-26T12:58:42.224Z,27.90
2022-11-26T13:01:10.468Z,27.43
2022-11-26T13:03:39.423Z,30.10
2022-11-26T13:06:12.670Z,31.93
2022-11-26T13:08:48.989Z,27.60
2022-11-26T13:11:26.087Z,29.63
2022-11-26T13:13:59.251Z,29.60
2022-11-26T13:16:34.732Z,25.80
2022-11-26T13:19:07.832Z,32.60
2022-11-26T13:21:44.901Z,24.00
2022-11-26T13:24:24.318Z,28.53
2022-11-26T13:27:07.399Z,26.20
2022-11-26T13:29:50.351Z,29.20
2022-11-26T13:32:39.291Z,30.30
2022-11-26T13:35:19.327Z,28.80
2022-11-26T13:38:07.934Z,32.67
2022-11-26T13:40:58.865Z,30.27
2022-11-26T13:43:55.228Z,24.27
2022-11-26T13:46:29.038Z,27.67
2022-11-26T13:49:01.541Z,27.23
2022-11-26T13:51:33.855Z,24.87
2022-11-26T13:54:07.133Z,33.00
2022-11-26T13:56:36.111Z,30.43
2022-11-26T13:59:05.805Z,30.77
2022-11-26T14:01:38.023Z,34.83
2022-11-26T14:04:07.706Z,29.67
2022-11-26T14:06:37.080Z,29.87
2022-11-26T14:09:05.882Z,28.27
2022-11-26T14:11:57.647Z,26.50
2022-11-26T14:14:33.157Z,23.97
2022-11-26T14:17:32.418Z,27.77
2022-11-26T14:20:09.211Z,21.93
2022-11-26T14:22:38.833Z,25.40
2022-11-26T14:25:08.697Z,30.80
2022-11-26T14:27:37.843Z,24.57
2022-11-26T14:30:19.539Z,23.97
2022-11-26T14:32:51.758Z,26.87
2022-11-26T14:35:23.560Z,27.63
2022-11-26T14:37:54.274Z,26.27
2022-11-26T14:40:24.969Z,25.27
2022-11-26T14:43:07.808Z,24.20
2022-11-26T14:45:35.463Z,22.33
2022-11-26T14:48:03.383Z,24.53
2022-11-26T14:50:31.571Z,27.83
2022-11-26T14:53:04.593Z,27.27
2022-11-26T14:55:32.608Z,24.20
2022-11-26T14:58:06.137Z,24.07
2022-11-26T15:00:36.730Z,23.43
2022-11-26T15:03:04.612Z,26.53
2022-11-26T15:05:33.895Z,24.33
2022-11-26T15:08:04.356Z,23.67
2022-11-26T15:10:33.433Z,20.77
2022-11-26T15:13:04.703Z,23.00
2022-11-26T15:15:32.212Z,20.00
2022-11-26T15:18:03.693Z,21.30
2022-11-26T15:20:31.375Z,27.57
2022-11-26T15:23:00.107Z,19.90
2022-11-26T15:25:33.532Z,23.30
2022-11-26T15:28:03.858Z,25.07
2022-11-26T15:30:34.058Z,26.30
2022-11-26T15:33:03.204Z,22.27
2022-11-26T15:35:33.108Z,25.30
2022-11-26T15:38:00.663Z,29.07
2022-11-26T15:40:31.384Z,22.67
2022-11-26T15:43:00.963Z,28.60
2022-11-26T15:45:35.974Z,23.37
2022-11-26T15:48:04.667Z,22.00
2022-11-26T15:50:33.620Z,25.73
2022-11-26T15:53:03.809Z,21.93
2022-11-26T15:55:34.479Z,23.37
2022-11-26T15:58:04.460Z,20.37
2022-11-26T16:00:34.374Z,29.93
2022-11-26T16:03:02.099Z,21.13
2022-11-26T16:05:34.600Z,19.97
2022-11-26T16:08:03.619Z,22.03
2022-11-26T16:10:35.311Z,25.23
2022-11-26T16:13:08.790Z,21.93
2022-11-26T16:15:36.770Z,20.20
2022-11-26T16:18:05.206Z,21.40
2022-11-26T16:20:32.634Z,22.57
2022-11-26T16:23:00.777Z,20.73
2022-11-26T16:25:29.610Z,22.30
2022-11-26T16:28:13.127Z,21.80
2022-11-26T16:30:42.673Z,25.50
2022-11-26T16:33:10.489Z,23.03
2022-11-26T16:35:46.440Z,21.57
2022-11-26T16:38:19.011Z,21.07
2022-11-26T16:40:46.616Z,21.03
2022-11-26T16:43:15.473Z,28.43
2022-11-26T16:45:43.463Z,24.63
2022-11-26T16:48:20.003Z,22.30
2022-11-26T16:50:47.436Z,22.00
2022-11-26T16:53:14.980Z,27.80
2022-11-26T16:55:42.407Z,22.27
2022-11-26T16:58:17.601Z,21.33
2022-11-26T17:00:45.046Z,26.80
2022-11-26T17:03:14.497Z,27.50
2022-11-26T17:05:42.403Z,24.13
2022-11-26T17:08:11.872Z,23.23
2022-11-26T17:10:39.355Z,23.03
2022-11-26T17:13:06.822Z,21.93
2022-11-26T17:15:35.883Z,22.27
2022-11-26T17:18:06.219Z,23.43
2022-11-26T17:20:33.615Z,21.00
2022-11-26T17:23:01.034Z,21.80
2022-11-26T17:25:30.539Z,21.50
2022-11-26T17:27:57.963Z,23.50
2022-11-26T17:30:25.550Z,22.63
2022-11-26T17:32:54.359Z,24.93
2022-11-26T17:35:21.848Z,22.90
2022-11-26T17:37:49.313Z,23.87
2022-11-26T17:40:18.058Z,21.63
2022-11-26T17:42:45.514Z,24.53
2022-11-26T17:45:13.150Z,22.50
2022-11-26T17:47:41.295Z,22.53
2022-11-26T17:50:16.616Z,22.03
2022-11-26T17:52:44.047Z,22.40
2022-11-26T17:55:12.550Z,22.60
2022-11-26T17:57:39.967Z,25.77
2022-11-26T18:00:09.572Z,22.07
2022-11-26T18:02:37.065Z,21.63
2022-11-26T18:05:04.886Z,22.17
2022-11-26T18:07:33.720Z,22.23
2022-11-26T18:10:01.167Z,23.77
2022-11-26T18:12:29.335Z,22.67
2022-11-26T18:14:57.885Z,22.53
2022-11-26T18:17:25.665Z,23.77
2022-11-26T18:19:53.132Z,22.07
2022-11-26T18:22:22.715Z,22.63
2022-11-26T18:24:56.984Z,26.17
2022-11-26T18:27:26.546Z,25.47
2022-11-26T18:29:54.071Z,21.00
2022-11-26T18:32:21.638Z,23.63
2022-11-26T18:34:49.646Z,24.10
2022-11-26T18:37:17.478Z,22.43
2022-11-26T18:39:44.900Z,23.07
2022-11-26T18:45:01.322Z,21.67
2022-11-26T18:47:29.051Z,21.47
2022-11-26T18:49:56.569Z,21.70
2022-11-26T18:52:24.006Z,24.87
2022-11-26T18:54:51.466Z,25.03
2022-11-26T18:57:20.218Z,22.83
2022-11-26T18:59:48.167Z,20.87
2022-11-26T19:02:15.678Z,22.37
2022-11-26T19:04:43.104Z,20.57
2022-11-26T19:07:10.903Z,20.83
2022-11-26T19:09:38.882Z,26.40
2022-11-26T19:12:07.306Z,20.90
2022-11-26T19:14:36.101Z,20.13
2022-11-26T19:17:03.669Z,20.33
2022-11-26T19:19:32.966Z,24.40
2022-11-26T19:22:01.709Z,26.07
2022-11-26T19:24:29.536Z,25.93
2022-11-26T19:26:57.058Z,22.53
2022-11-26T19:29:24.790Z,20.93
2022-11-26T19:31:53.624Z,20.67
2022-11-26T19:34:21.048Z,25.80
2022-11-26T19:36:49.219Z,22.07
2022-11-26T19:39:18.166Z,20.60
2022-11-26T19:41:45.638Z,19.77
2022-11-26T19:44:13.082Z,24.13
2022-11-26T19:46:41.739Z,20.40
2022-11-26T19:49:12.500Z,22.00
2022-11-26T19:51:40.315Z,20.70
2022-11-26T19:54:07.891Z,21.53
2022-11-26T19:56:35.607Z,21.83
2022-11-26T19:59:03.248Z,20.57
2022-11-26T20:01:32.028Z,20.43
2022-11-26T20:04:00.873Z,21.03
2022-11-26T20:06:31.566Z,21.53
2022-11-26T20:08:59.123Z,21.67
2022-11-26T20:11:27.283Z,21.43
2022-11-26T20:13:55.321Z,21.67
2022-11-26T20:16:25.610Z,22.63
2022-11-26T20:18:53.564Z,20.83
2022-11-26T20:21:22.619Z,20.23
2022-11-26T20:23:51.775Z,20.40
2022-11-26T20:26:21.624Z,20.50
2022-11-26T20:28:49.666Z,22.33
2022-11-26T20:31:22.082Z,21.17
2022-11-26T20:33:51.359Z,22.17
2022-11-26T20:36:20.718Z,21.63
2022-11-26T20:38:48.172Z,20.13
2022-11-26T20:41:17.415Z,20.20
2022-11-26T20:43:45.269Z,20.10
2022-11-26T20:46:14.710Z,19.77
2022-11-26T20:48:43.707Z,21.63
2022-11-26T20:51:13.582Z,19.80
2022-11-26T20:53:41.837Z,19.57
2022-11-26T20:56:09.646Z,23.93
2022-11-26T20:58:38.425Z,20.10
2022-11-26T21:01:06.538Z,20.57
2022-11-26T21:03:34.011Z,21.13
2022-11-26T21:06:03.371Z,25.67
2022-11-26T21:08:30.978Z,22.13
2022-11-26T21:10:58.430Z,20.03
2022-11-26T21:13:25.874Z,20.33
2022-11-26T21:15:54.996Z,20.83
2022-11-26T21:18:22.435Z,22.93
2022-11-26T21:20:50.224Z,21.57
2022-11-26T21:23:17.643Z,20.20
2022-11-26T21:25:45.059Z,19.93
2022-11-26T21:28:14.900Z,22.13
2022-11-26T21:30:42.858Z,21.73
2022-11-26T21:33:11.660Z,21.43
2022-11-26T21:35:39.111Z,20.37
2022-11-26T21:38:06.812Z,21.00
2022-11-26T21:40:34.255Z,22.50
2022-11-26T21:43:01.663Z,23.50
2022-11-26T21:45:29.584Z,23.07
2022-11-26T21:47:56.998Z,20.70
2022-11-26T21:50:25.748Z,20.20
2022-11-26T21:52:53.194Z,21.03
2022-11-26T21:55:21.987Z,23.57
2022-11-26T21:57:49.400Z,22.90
2022-11-26T22:00:18.125Z,23.43
2022-11-26T22:02:45.594Z,22.17
2022-11-26T22:05:13.085Z,25.17
2022-11-26T22:07:42.061Z,22.50
2022-11-26T22:10:10.948Z,25.17
2022-11-26T22:12:38.375Z,21.33
2022-11-26T22:15:06.599Z,21.33
2022-11-26T22:17:35.753Z,25.50
2022-11-26T22:20:03.696Z,28.23
2022-11-26T22:22:32.093Z,21.87
2022-11-26T22:25:00.830Z,26.87
2022-11-26T22:27:28.248Z,25.93
2022-11-26T22:29:55.695Z,22.30
2022-11-26T22:32:23.150Z,23.43
2022-11-26T22:34:50.537Z,23.23
2022-11-26T22:37:17.956Z,22.17
2022-11-26T22:39:47.748Z,22.27
2022-11-26T22:42:19.877Z,25.83
2022-11-26T22:44:47.305Z,24.53
2022-11-26T22:47:14.723Z,24.03
2022-11-26T22:49:43.613Z,24.10
2022-11-26T22:52:11.790Z,21.17
2022-11-26T22:54:39.188Z,26.93
2022-11-26T22:57:06.646Z,23.17
2022-11-26T22:59:35.419Z,24.37
2022-11-26T23:02:02.824Z,23.27
2022-11-26T23:04:30.216Z,25.57
2022-11-26T23:06:57.674Z,24.63
2022-11-26T23:09:25.142Z,24.10
2022-11-26T23:11:52.605Z,22.00
2022-11-26T23:14:20.037Z,23.37
2022-11-26T23:16:48.855Z,25.90
2022-11-26T23:19:17.303Z,25.33
2022-11-26T23:21:46.577Z,25.43
2022-11-26T23:24:14.483Z,23.43
2022-11-26T23:26:42.748Z,23.67
2022-11-26T23:29:11.203Z,21.57
2022-11-26T23:31:40.680Z,23.47
2022-11-26T23:34:10.224Z,21.70
2022-11-26T23:36:38.149Z,27.23
2022-11-26T23:39:07.565Z,22.37
2022-11-26T23:41:35.420Z,22.17
2022-11-26T23:44:03.380Z,23.30
2022-11-26T23:46:32.727Z,23.40
2022-11-26T23:49:00.315Z,29.17
2022-11-26T23:51:31.602Z,27.10
2022-11-26T23:53:59.043Z,25.83
2022-11-26T23:56:28.616Z,24.97
2022-11-26T23:58:57.378Z,24.27
